sensor_id;sensor_type;location;lat;lon;timestamp;temperature;humidity
34568;DHT22;20806;50.746;7.116;2023-02-15T00:00:53;5.10;99.90
34568;DHT22;20806;50.746;7.116;2023-02-15T00:03:22;5.10;99.90
34568;DHT22;20806;50.746;7.116;2023-02-15T00:05:47;5.00;99.90
34568;DHT22;20806;50.746;7.116;2023-02-15T00:08:13;5.10;99.90
34568;DHT22;20806;50.746;7.116;2023-02-15T00:10:38;5.10;99.90
34568;DHT22;20806;50.746;7.116;2023-02-15T00:13:04;5.10;99.90
34568;DHT22;20806;50.746;7.116;2023-02-15T00:15:29;5.10;99.90
34568;DHT22;20806;50.746;7.116;2023-02-15T00:17:56;5.10;99.90
34568;DHT22;20806;50.746;7.116;2023-02-15T00:20:22;5.10;99.90
34568;DHT22;20806;50.746;7.116;2023-02-15T00:22:47;5.00;99.90
34568;DHT22;20806;50.746;7.116;2023-02-15T00:25:13;5.00;99.90
34568;DHT22;20806;50.746;7.116;2023-02-15T00:27:38;5.00;99.90
34568;DHT22;20806;50.746;7.116;2023-02-15T00:30:04;4.90;99.90
34568;DHT22;20806;50.746;7.116;2023-02-15T00:32:30;4.80;99.90
34568;DHT22;20806;50.746;7.116;2023-02-15T00:34:56;4.70;99.90
34568;DHT22;20806;50.746;7.116;2023-02-15T00:37:22;4.70;99.90
34568;DHT22;20806;50.746;7.116;2023-02-15T00:39:47;4.70;99.90
34568;DHT22;20806;50.746;7.116;2023-02-15T00:42:12;4.70;99.90
34568;DHT22;20806;50.746;7.116;2023-02-15T00:44:38;4.70;99.90
34568;DHT22;20806;50.746;7.116;2023-02-15T00:47:03;4.70;99.90
34568;DHT22;20806;50.746;7.116;2023-02-15T00:49:29;4.70;99.90
34568;DHT22;20806;50.746;7.116;2023-02-15T00:51:54;4.70;99.90
34568;DHT22;20806;50.746;7.116;2023-02-15T00:54:20;4.60;99.90
34568;DHT22;20806;50.746;7.116;2023-02-15T00:56:45;4.70;99.90
34568;DHT22;20806;50.746;7.116;2023-02-15T00:59:11;4.70;99.90
34568;DHT22;20806;50.746;7.116;2023-02-15T01:01:36;4.70;99.90
34568;DHT22;20806;50.746;7.116;2023-02-15T01:04:02;4.50;99.90
34568;DHT22;20806;50.746;7.116;2023-02-15T01:06:27;4.50;99.90
34568;DHT22;20806;50.746;7.116;2023-02-15T01:08:53;4.50;99.90
34568;DHT22;20806;50.746;7.116;2023-02-15T01:11:19;4.50;99.90
34568;DHT22;20806;50.746;7.116;2023-02-15T01:13:47;4.40;99.90
34568;DHT22;20806;50.746;7.116;2023-02-15T01:16:13;4.40;99.90
34568;DHT22;20806;50.746;7.116;2023-02-15T01:18:38;4.40;99.90
34568;DHT22;20806;50.746;7.116;2023-02-15T01:21:11;4.40;99.90
34568;DHT22;20806;50.746;7.116;2023-02-15T01:23:39;4.40;99.90
34568;DHT22;20806;50.746;7.116;2023-02-15T01:26:04;4.40;99.90
34568;DHT22;20806;50.746;7.116;2023-02-15T01:28:30;4.40;99.90
34568;DHT22;20806;50.746;7.116;2023-02-15T01:30:56;4.40;99.90
34568;DHT22;20806;50.746;7.116;2023-02-15T01:33:21;4.40;99.90
34568;DHT22;20806;50.746;7.116;2023-02-15T01:35:47;4.40;99.90
34568;DHT22;20806;50.746;7.116;2023-02-15T01:38:13;4.40;99.90
34568;DHT22;20806;50.746;7.116;2023-02-15T01:40:38;4.30;99.90
34568;DHT22;20806;50.746;7.116;2023-02-15T01:43:09;4.30;99.90
34568;DHT22;20806;50.746;7.116;2023-02-15T01:45:35;4.30;99.90
34568;DHT22;20806;50.746;7.116;2023-02-15T01:48:05;4.30;99.90
34568;DHT22;20806;50.746;7.116;2023-02-15T01:55:22;4.20;99.90
34568;DHT22;20806;50.746;7.116;2023-02-15T01:57:48;4.20;99.90
34568;DHT22;20806;50.746;7.116;2023-02-15T02:00:15;4.20;99.90
34568;DHT22;20806;50.746;7.116;2023-02-15T02:02:42;4.20;99.90
34568;DHT22;20806;50.746;7.116;2023-02-15T02:05:08;4.20;99.90
34568;DHT22;20806;50.746;7.116;2023-02-15T02:07:35;4.20;99.90
34568;DHT22;20806;50.746;7.116;2023-02-15T02:10:02;4.10;99.90
34568;DHT22;20806;50.746;7.116;2023-02-15T02:12:28;4.10;99.90
34568;DHT22;20806;50.746;7.116;2023-02-15T02:14:55;4.00;99.90
34568;DHT22;20806;50.746;7.116;2023-02-15T02:20:04;4.00;99.90
34568;DHT22;20806;50.746;7.116;2023-02-15T02:30:05;4.00;99.90
34568;DHT22;20806;50.746;7.116;2023-02-15T02:35:01;4.00;99.90
34568;DHT22;20806;50.746;7.116;2023-02-15T02:37:35;4.00;99.90
34568;DHT22;20806;50.746;7.116;2023-02-15T02:40:16;4.00;99.90
34568;DHT22;20806;50.746;7.116;2023-02-15T02:42:47;4.00;99.90
34568;DHT22;20806;50.746;7.116;2023-02-15T02:45:34;3.90;99.90
34568;DHT22;20806;50.746;7.116;2023-02-15T02:48:08;3.90;99.90
34568;DHT22;20806;50.746;7.116;2023-02-15T02:50:34;3.90;99.90
34568;DHT22;20806;50.746;7.116;2023-02-15T02:53:00;3.90;99.90
34568;DHT22;20806;50.746;7.116;2023-02-15T02:57:56;3.90;99.90
34568;DHT22;20806;50.746;7.116;2023-02-15T03:00:23;3.90;99.90
34568;DHT22;20806;50.746;7.116;2023-02-15T03:02:50;3.90;99.90
34568;DHT22;20806;50.746;7.116;2023-02-15T03:05:20;3.90;99.90
34568;DHT22;20806;50.746;7.116;2023-02-15T03:07:47;3.90;99.90
34568;DHT22;20806;50.746;7.116;2023-02-15T03:10:14;3.80;99.90
34568;DHT22;20806;50.746;7.116;2023-02-15T03:12:40;3.80;99.90
34568;DHT22;20806;50.746;7.116;2023-02-15T03:15:08;3.80;99.90
34568;DHT22;20806;50.746;7.116;2023-02-15T03:17:36;3.80;99.90
34568;DHT22;20806;50.746;7.116;2023-02-15T03:20:11;3.70;99.90
34568;DHT22;20806;50.746;7.116;2023-02-15T03:22:40;3.70;99.90
34568;DHT22;20806;50.746;7.116;2023-02-15T03:25:12;3.70;99.90
34568;DHT22;20806;50.746;7.116;2023-02-15T03:27:41;3.80;99.90
34568;DHT22;20806;50.746;7.116;2023-02-15T03:30:07;3.80;99.90
34568;DHT22;20806;50.746;7.116;2023-02-15T03:32:34;3.80;99.90
34568;DHT22;20806;50.746;7.116;2023-02-15T03:35:00;3.80;99.90
34568;DHT22;20806;50.746;7.116;2023-02-15T03:37:28;3.80;99.90
34568;DHT22;20806;50.746;7.116;2023-02-15T03:40:02;3.70;99.90
34568;DHT22;20806;50.746;7.116;2023-02-15T03:42:49;3.70;99.90
34568;DHT22;20806;50.746;7.116;2023-02-15T03:45:18;3.70;99.90
34568;DHT22;20806;50.746;7.116;2023-02-15T03:47:46;3.70;99.90
34568;DHT22;20806;50.746;7.116;2023-02-15T03:50:27;3.70;99.90
34568;DHT22;20806;50.746;7.116;2023-02-15T03:53:13;3.70;99.90
34568;DHT22;20806;50.746;7.116;2023-02-15T03:55:39;3.70;99.90
34568;DHT22;20806;50.746;7.116;2023-02-15T03:58:04;3.60;99.90
34568;DHT22;20806;50.746;7.116;2023-02-15T04:00:50;3.60;99.90
34568;DHT22;20806;50.746;7.116;2023-02-15T04:03:40;3.60;99.90
34568;DHT22;20806;50.746;7.116;2023-02-15T04:06:08;3.50;99.90
34568;DHT22;20806;50.746;7.116;2023-02-15T04:08:33;3.60;99.90
34568;DHT22;20806;50.746;7.116;2023-02-15T04:11:18;3.60;99.90
34568;DHT22;20806;50.746;7.116;2023-02-15T04:13:43;3.60;99.90
34568;DHT22;20806;50.746;7.116;2023-02-15T04:16:09;3.50;99.90
34568;DHT22;20806;50.746;7.116;2023-02-15T04:21:19;3.50;99.90
34568;DHT22;20806;50.746;7.116;2023-02-15T04:24:04;3.50;99.90
34568;DHT22;20806;50.746;7.116;2023-02-15T04:26:48;3.50;99.90
34568;DHT22;20806;50.746;7.116;2023-02-15T04:29:14;3.50;99.90
34568;DHT22;20806;50.746;7.116;2023-02-15T04:31:40;3.50;99.90
34568;DHT22;20806;50.746;7.116;2023-02-15T04:34:06;3.50;99.90
34568;DHT22;20806;50.746;7.116;2023-02-15T04:36:31;3.40;99.90
34568;DHT22;20806;50.746;7.116;2023-02-15T04:38:56;3.40;99.90
34568;DHT22;20806;50.746;7.116;2023-02-15T04:41:22;3.40;99.90
34568;DHT22;20806;50.746;7.116;2023-02-15T04:43:47;3.40;99.90
34568;DHT22;20806;50.746;7.116;2023-02-15T04:46:13;3.40;99.90
34568;DHT22;20806;50.746;7.116;2023-02-15T04:48:38;3.40;99.90
34568;DHT22;20806;50.746;7.116;2023-02-15T04:51:07;3.40;99.90
34568;DHT22;20806;50.746;7.116;2023-02-15T04:53:33;3.40;99.90
34568;DHT22;20806;50.746;7.116;2023-02-15T04:55:58;3.40;99.90
34568;DHT22;20806;50.746;7.116;2023-02-15T04:58:24;3.40;99.90
34568;DHT22;20806;50.746;7.116;2023-02-15T05:00:49;3.40;99.90
34568;DHT22;20806;50.746;7.116;2023-02-15T05:03:15;3.40;99.90
34568;DHT22;20806;50.746;7.116;2023-02-15T05:05:40;3.40;99.90
34568;DHT22;20806;50.746;7.116;2023-02-15T05:08:06;3.40;99.90
34568;DHT22;20806;50.746;7.116;2023-02-15T05:10:31;3.30;99.90
34568;DHT22;20806;50.746;7.116;2023-02-15T05:12:57;3.30;99.90
34568;DHT22;20806;50.746;7.116;2023-02-15T05:15:22;3.30;99.90
34568;DHT22;20806;50.746;7.116;2023-02-15T05:17:48;3.30;99.90
34568;DHT22;20806;50.746;7.116;2023-02-15T05:20:13;3.30;99.90
34568;DHT22;20806;50.746;7.116;2023-02-15T05:22:39;3.30;99.90
34568;DHT22;20806;50.746;7.116;2023-02-15T05:25:06;3.30;99.90
34568;DHT22;20806;50.746;7.116;2023-02-15T05:27:50;3.30;99.90
34568;DHT22;20806;50.746;7.116;2023-02-15T05:30:34;3.30;99.90
34568;DHT22;20806;50.746;7.116;2023-02-15T05:32:59;3.30;99.90
34568;DHT22;20806;50.746;7.116;2023-02-15T05:35:25;3.30;99.90
34568;DHT22;20806;50.746;7.116;2023-02-15T05:37:50;3.30;99.90
34568;DHT22;20806;50.746;7.116;2023-02-15T05:40:18;3.30;99.90
34568;DHT22;20806;50.746;7.116;2023-02-15T05:42:43;3.20;99.90
34568;DHT22;20806;50.746;7.116;2023-02-15T05:45:09;3.20;99.90
34568;DHT22;20806;50.746;7.116;2023-02-15T05:47:35;3.20;99.90
34568;DHT22;20806;50.746;7.116;2023-02-15T05:50:00;3.20;99.90
34568;DHT22;20806;50.746;7.116;2023-02-15T05:52:26;3.20;99.90
34568;DHT22;20806;50.746;7.116;2023-02-15T05:54:51;3.20;99.90
34568;DHT22;20806;50.746;7.116;2023-02-15T05:57:16;3.20;99.90
34568;DHT22;20806;50.746;7.116;2023-02-15T05:59:42;3.20;99.90
34568;DHT22;20806;50.746;7.116;2023-02-15T06:02:07;3.20;99.90
34568;DHT22;20806;50.746;7.116;2023-02-15T06:04:33;3.20;99.90
34568;DHT22;20806;50.746;7.116;2023-02-15T06:06:58;3.20;99.90
34568;DHT22;20806;50.746;7.116;2023-02-15T06:09:24;3.20;99.90
34568;DHT22;20806;50.746;7.116;2023-02-15T06:11:49;3.20;99.90
34568;DHT22;20806;50.746;7.116;2023-02-15T06:14:15;3.20;99.90
34568;DHT22;20806;50.746;7.116;2023-02-15T06:16:40;3.10;99.90
34568;DHT22;20806;50.746;7.116;2023-02-15T06:19:06;3.20;99.90
34568;DHT22;20806;50.746;7.116;2023-02-15T06:21:32;3.20;99.90
34568;DHT22;20806;50.746;7.116;2023-02-15T06:23:57;3.20;99.90
34568;DHT22;20806;50.746;7.116;2023-02-15T06:26:22;3.20;99.90
34568;DHT22;20806;50.746;7.116;2023-02-15T06:28:48;3.20;99.90
34568;DHT22;20806;50.746;7.116;2023-02-15T06:31:13;3.20;99.90
34568;DHT22;20806;50.746;7.116;2023-02-15T06:33:39;3.20;99.90
34568;DHT22;20806;50.746;7.116;2023-02-15T06:36:04;3.10;99.90
34568;DHT22;20806;50.746;7.116;2023-02-15T06:38:30;3.00;99.90
34568;DHT22;20806;50.746;7.116;2023-02-15T06:40:56;3.00;99.90
34568;DHT22;20806;50.746;7.116;2023-02-15T06:43:21;3.00;99.90
34568;DHT22;20806;50.746;7.116;2023-02-15T06:45:46;3.10;99.90
34568;DHT22;20806;50.746;7.116;2023-02-15T06:48:12;3.50;99.90
34568;DHT22;20806;50.746;7.116;2023-02-15T06:50:38;3.70;99.90
34568;DHT22;20806;50.746;7.116;2023-02-15T06:53:03;3.70;99.90
34568;DHT22;20806;50.746;7.116;2023-02-15T06:55:29;3.60;99.90
34568;DHT22;20806;50.746;7.116;2023-02-15T06:57:54;3.50;99.90
34568;DHT22;20806;50.746;7.116;2023-02-15T07:00:20;3.50;99.90
34568;DHT22;20806;50.746;7.116;2023-02-15T07:02:47;3.50;99.90
34568;DHT22;20806;50.746;7.116;2023-02-15T07:05:12;3.40;99.90
34568;DHT22;20806;50.746;7.116;2023-02-15T07:07:38;3.30;99.90
34568;DHT22;20806;50.746;7.116;2023-02-15T07:10:03;3.30;99.90
34568;DHT22;20806;50.746;7.116;2023-02-15T07:12:29;3.30;99.90
34568;DHT22;20806;50.746;7.116;2023-02-15T07:15:17;3.30;99.90
34568;DHT22;20806;50.746;7.116;2023-02-15T07:17:43;3.30;99.90
34568;DHT22;20806;50.746;7.116;2023-02-15T07:20:10;3.30;99.90
34568;DHT22;20806;50.746;7.116;2023-02-15T07:22:36;3.30;99.90
34568;DHT22;20806;50.746;7.116;2023-02-15T07:25:06;3.30;99.90
34568;DHT22;20806;50.746;7.116;2023-02-15T07:27:31;3.30;99.90
34568;DHT22;20806;50.746;7.116;2023-02-15T07:29:57;3.30;99.90
34568;DHT22;20806;50.746;7.116;2023-02-15T07:32:23;3.40;99.90
34568;DHT22;20806;50.746;7.116;2023-02-15T07:34:48;3.40;99.90
34568;DHT22;20806;50.746;7.116;2023-02-15T07:37:14;3.40;99.90
34568;DHT22;20806;50.746;7.116;2023-02-15T07:39:39;3.50;99.90
34568;DHT22;20806;50.746;7.116;2023-02-15T07:42:05;3.50;99.90
34568;DHT22;20806;50.746;7.116;2023-02-15T07:44:30;3.60;99.90
34568;DHT22;20806;50.746;7.116;2023-02-15T07:46:56;3.60;99.90
34568;DHT22;20806;50.746;7.116;2023-02-15T07:49:21;3.60;99.90
34568;DHT22;20806;50.746;7.116;2023-02-15T07:51:47;3.60;99.90
34568;DHT22;20806;50.746;7.116;2023-02-15T07:54:12;3.70;99.90
34568;DHT22;20806;50.746;7.116;2023-02-15T07:56:38;3.70;99.90
34568;DHT22;20806;50.746;7.116;2023-02-15T07:59:03;3.80;99.90
34568;DHT22;20806;50.746;7.116;2023-02-15T08:01:31;3.80;99.90
34568;DHT22;20806;50.746;7.116;2023-02-15T08:03:57;3.90;99.90
34568;DHT22;20806;50.746;7.116;2023-02-15T08:06:23;3.90;99.90
34568;DHT22;20806;50.746;7.116;2023-02-15T08:08:49;3.90;99.90
34568;DHT22;20806;50.746;7.116;2023-02-15T08:11:16;4.00;99.90
34568;DHT22;20806;50.746;7.116;2023-02-15T08:13:59;4.00;99.90
34568;DHT22;20806;50.746;7.116;2023-02-15T08:16:35;4.10;99.90
34568;DHT22;20806;50.746;7.116;2023-02-15T08:21:52;4.20;99.90
34568;DHT22;20806;50.746;7.116;2023-02-15T08:24:19;4.20;99.90
34568;DHT22;20806;50.746;7.116;2023-02-15T08:26:45;4.30;99.90
34568;DHT22;20806;50.746;7.116;2023-02-15T08:29:12;4.30;99.90
34568;DHT22;20806;50.746;7.116;2023-02-15T08:31:38;4.30;99.90
34568;DHT22;20806;50.746;7.116;2023-02-15T08:34:04;4.40;99.90
34568;DHT22;20806;50.746;7.116;2023-02-15T08:36:30;4.40;99.90
34568;DHT22;20806;50.746;7.116;2023-02-15T08:38:57;4.40;99.90
34568;DHT22;20806;50.746;7.116;2023-02-15T08:41:27;4.40;99.90
34568;DHT22;20806;50.746;7.116;2023-02-15T08:43:53;4.50;99.90
34568;DHT22;20806;50.746;7.116;2023-02-15T08:46:19;4.50;99.90
34568;DHT22;20806;50.746;7.116;2023-02-15T08:48:45;4.50;99.90
34568;DHT22;20806;50.746;7.116;2023-02-15T08:51:15;4.60;99.90
34568;DHT22;20806;50.746;7.116;2023-02-15T08:53:41;4.60;99.90
34568;DHT22;20806;50.746;7.116;2023-02-15T08:56:07;4.70;99.90
34568;DHT22;20806;50.746;7.116;2023-02-15T08:58:33;4.70;99.90
34568;DHT22;20806;50.746;7.116;2023-02-15T09:00:59;4.70;99.90
34568;DHT22;20806;50.746;7.116;2023-02-15T09:03:24;4.80;99.90
34568;DHT22;20806;50.746;7.116;2023-02-15T09:05:50;4.90;99.90
34568;DHT22;20806;50.746;7.116;2023-02-15T09:08:16;4.90;99.90
34568;DHT22;20806;50.746;7.116;2023-02-15T09:10:41;4.90;99.90
34568;DHT22;20806;50.746;7.116;2023-02-15T09:13:07;5.00;99.90
34568;DHT22;20806;50.746;7.116;2023-02-15T09:15:32;5.00;99.90
34568;DHT22;20806;50.746;7.116;2023-02-15T09:17:58;5.10;99.90
34568;DHT22;20806;50.746;7.116;2023-02-15T09:20:31;5.10;99.90
34568;DHT22;20806;50.746;7.116;2023-02-15T09:22:56;5.10;99.90
34568;DHT22;20806;50.746;7.116;2023-02-15T09:25:22;5.20;99.90
34568;DHT22;20806;50.746;7.116;2023-02-15T09:27:47;5.20;99.90
34568;DHT22;20806;50.746;7.116;2023-02-15T09:30:13;5.30;99.90
34568;DHT22;20806;50.746;7.116;2023-02-15T09:32:39;5.30;99.90
34568;DHT22;20806;50.746;7.116;2023-02-15T09:35:04;5.40;99.90
34568;DHT22;20806;50.746;7.116;2023-02-15T09:37:30;5.40;99.90
34568;DHT22;20806;50.746;7.116;2023-02-15T09:39:57;5.40;99.90
34568;DHT22;20806;50.746;7.116;2023-02-15T09:45:30;5.60;99.90
34568;DHT22;20806;50.746;7.116;2023-02-15T09:52:53;5.70;99.90
34568;DHT22;20806;50.746;7.116;2023-02-15T09:58:11;5.80;99.90
34568;DHT22;20806;50.746;7.116;2023-02-15T10:21:53;6.40;99.90
34568;DHT22;20806;50.746;7.116;2023-02-15T10:24:27;6.40;99.90
34568;DHT22;20806;50.746;7.116;2023-02-15T10:26:56;6.50;99.90
34568;DHT22;20806;50.746;7.116;2023-02-15T10:29:35;6.60;99.90
34568;DHT22;20806;50.746;7.116;2023-02-15T10:32:20;6.60;99.90
34568;DHT22;20806;50.746;7.116;2023-02-15T10:40:01;6.90;99.90
34568;DHT22;20806;50.746;7.116;2023-02-15T10:42:40;6.90;99.90
34568;DHT22;20806;50.746;7.116;2023-02-15T10:45:13;7.00;99.90
34568;DHT22;20806;50.746;7.116;2023-02-15T10:52:59;7.20;99.90
